sensor_id;sensor_type;location;lat;lon;timestamp;P1;durP1;ratioP1;P2;durP2;ratioP2
13816;SDS011;6979;52.116;5.286;2023-03-01T00:01:00;7.90;;;6.70;;
13816;SDS011;6979;52.116;5.286;2023-03-01T00:03:28;7.43;;;6.77;;
13816;SDS011;6979;52.116;5.286;2023-03-01T00:05:56;7.90;;;7.10;;
13816;SDS011;6979;52.116;5.286;2023-03-01T00:08:26;7.73;;;7.10;;
13816;SDS011;6979;52.116;5.286;2023-03-01T00:11:01;8.17;;;7.37;;
13816;SDS011;6979;52.116;5.286;2023-03-01T00:13:30;7.50;;;6.90;;
13816;SDS011;6979;52.116;5.286;2023-03-01T00:15:56;8.53;;;7.73;;
13816;SDS011;6979;52.116;5.286;2023-03-01T00:18:23;7.13;;;6.53;;
13816;SDS011;6979;52.116;5.286;2023-03-01T00:20:51;7.77;;;6.97;;
13816;SDS011;6979;52.116;5.286;2023-03-01T00:23:20;7.13;;;6.63;;
13816;SDS011;6979;52.116;5.286;2023-03-01T00:25:47;7.37;;;6.67;;
13816;SDS011;6979;52.116;5.286;2023-03-01T00:28:14;7.23;;;6.63;;
13816;SDS011;6979;52.116;5.286;2023-03-01T00:30:42;7.43;;;6.73;;
13816;SDS011;6979;52.116;5.286;2023-03-01T00:33:09;6.83;;;6.30;;
13816;SDS011;6979;52.116;5.286;2023-03-01T00:35:36;7.70;;;7.00;;
13816;SDS011;6979;52.116;5.286;2023-03-01T00:38:03;7.80;;;7.10;;
13816;SDS011;6979;52.116;5.286;2023-03-01T00:40:32;8.07;;;7.27;;
13816;SDS011;6979;52.116;5.286;2023-03-01T00:43:00;8.13;;;7.53;;
13816;SDS011;6979;52.116;5.286;2023-03-01T00:45:28;8.43;;;7.67;;
13816;SDS011;6979;52.116;5.286;2023-03-01T00:47:56;8.93;;;8.23;;
13816;SDS011;6979;52.116;5.286;2023-03-01T00:50:23;8.57;;;7.83;;
13816;SDS011;6979;52.116;5.286;2023-03-01T00:52:52;8.47;;;7.50;;
13816;SDS011;6979;52.116;5.286;2023-03-01T00:55:22;9.20;;;8.33;;
13816;SDS011;6979;52.116;5.286;2023-03-01T00:57:56;8.40;;;7.70;;
13816;SDS011;6979;52.116;5.286;2023-03-01T01:00:23;8.67;;;7.97;;
13816;SDS011;6979;52.116;5.286;2023-03-01T01:02:54;8.80;;;8.03;;
13816;SDS011;6979;52.116;5.286;2023-03-01T01:05:21;8.97;;;8.27;;
13816;SDS011;6979;52.116;5.286;2023-03-01T01:07:48;8.97;;;8.17;;
13816;SDS011;6979;52.116;5.286;2023-03-01T01:10:17;9.17;;;8.33;;
13816;SDS011;6979;52.116;5.286;2023-03-01T01:12:46;9.40;;;8.50;;
13816;SDS011;6979;52.116;5.286;2023-03-01T01:15:14;9.00;;;8.20;;
13816;SDS011;6979;52.116;5.286;2023-03-01T01:17:41;8.83;;;8.03;;
13816;SDS011;6979;52.116;5.286;2023-03-01T01:20:09;9.30;;;8.50;;
13816;SDS011;6979;52.116;5.286;2023-03-01T01:22:36;8.67;;;7.97;;
13816;SDS011;6979;52.116;5.286;2023-03-01T01:25:04;9.70;;;8.90;;
13816;SDS011;6979;52.116;5.286;2023-03-01T01:27:31;8.87;;;7.97;;
13816;SDS011;6979;52.116;5.286;2023-03-01T01:29:58;8.03;;;7.33;;
13816;SDS011;6979;52.116;5.286;2023-03-01T01:32:26;8.20;;;7.50;;
13816;SDS011;6979;52.116;5.286;2023-03-01T01:34:53;8.23;;;7.43;;
13816;SDS011;6979;52.116;5.286;2023-03-01T01:37:20;7.40;;;6.80;;
13816;SDS011;6979;52.116;5.286;2023-03-01T01:39:48;8.67;;;7.90;;
13816;SDS011;6979;52.116;5.286;2023-03-01T01:42:18;7.73;;;7.13;;
13816;SDS011;6979;52.116;5.286;2023-03-01T01:44:45;8.50;;;7.67;;
13816;SDS011;6979;52.116;5.286;2023-03-01T01:47:13;8.43;;;7.53;;
13816;SDS011;6979;52.116;5.286;2023-03-01T01:49:44;7.83;;;7.23;;
13816;SDS011;6979;52.116;5.286;2023-03-01T01:52:16;7.63;;;6.93;;
13816;SDS011;6979;52.116;5.286;2023-03-01T01:54:47;7.90;;;7.10;;
13816;SDS011;6979;52.116;5.286;2023-03-01T01:57:20;7.90;;;7.20;;
13816;SDS011;6979;52.116;5.286;2023-03-01T01:59:53;7.67;;;6.90;;
13816;SDS011;6979;52.116;5.286;2023-03-01T02:02:23;7.57;;;6.90;;
13816;SDS011;6979;52.116;5.286;2023-03-01T02:04:54;7.67;;;7.07;;
13816;SDS011;6979;52.116;5.286;2023-03-01T02:07:28;8.70;;;7.90;;
13816;SDS011;6979;52.116;5.286;2023-03-01T02:09:56;9.37;;;7.53;;
13816;SDS011;6979;52.116;5.286;2023-03-01T02:12:24;8.17;;;7.47;;
13816;SDS011;6979;52.116;5.286;2023-03-01T02:14:52;7.97;;;7.27;;
13816;SDS011;6979;52.116;5.286;2023-03-01T02:17:19;9.23;;;8.43;;
13816;SDS011;6979;52.116;5.286;2023-03-01T02:19:52;8.60;;;7.90;;
13816;SDS011;6979;52.116;5.286;2023-03-01T02:22:33;8.60;;;7.90;;
13816;SDS011;6979;52.116;5.286;2023-03-01T02:25:06;9.30;;;8.40;;
13816;SDS011;6979;52.116;5.286;2023-03-01T02:27:45;10.30;;;8.37;;
13816;SDS011;6979;52.116;5.286;2023-03-01T02:30:18;9.67;;;8.67;;
13816;SDS011;6979;52.116;5.286;2023-03-01T02:32:47;8.40;;;7.70;;
13816;SDS011;6979;52.116;5.286;2023-03-01T02:35:14;8.70;;;8.00;;
13816;SDS011;6979;52.116;5.286;2023-03-01T02:37:45;8.87;;;8.07;;
13816;SDS011;6979;52.116;5.286;2023-03-01T02:40:15;9.43;;;8.53;;
13816;SDS011;6979;52.116;5.286;2023-03-01T02:42:48;8.33;;;7.53;;
13816;SDS011;6979;52.116;5.286;2023-03-01T02:45:19;9.27;;;8.47;;
13816;SDS011;6979;52.116;5.286;2023-03-01T02:47:46;9.77;;;8.87;;
13816;SDS011;6979;52.116;5.286;2023-03-01T02:50:18;9.17;;;7.57;;
13816;SDS011;6979;52.116;5.286;2023-03-01T02:55:42;8.90;;;8.10;;
13816;SDS011;6979;52.116;5.286;2023-03-01T02:58:09;8.07;;;7.37;;
13816;SDS011;6979;52.116;5.286;2023-03-01T03:00:39;8.77;;;8.07;;
13816;SDS011;6979;52.116;5.286;2023-03-01T03:03:11;9.87;;;7.23;;
13816;SDS011;6979;52.116;5.286;2023-03-01T03:05:42;7.97;;;7.37;;
13816;SDS011;6979;52.116;5.286;2023-03-01T03:08:09;8.03;;;7.33;;
13816;SDS011;6979;52.116;5.286;2023-03-01T03:10:37;8.03;;;7.23;;
13816;SDS011;6979;52.116;5.286;2023-03-01T03:13:09;7.57;;;6.97;;
13816;SDS011;6979;52.116;5.286;2023-03-01T03:15:42;8.40;;;7.60;;
13816;SDS011;6979;52.116;5.286;2023-03-01T03:18:10;8.33;;;7.53;;
13816;SDS011;6979;52.116;5.286;2023-03-01T03:20:44;8.17;;;7.47;;
13816;SDS011;6979;52.116;5.286;2023-03-01T03:23:19;8.30;;;7.50;;
13816;SDS011;6979;52.116;5.286;2023-03-01T03:25:48;8.83;;;8.07;;
13816;SDS011;6979;52.116;5.286;2023-03-01T03:28:16;7.90;;;7.20;;
13816;SDS011;6979;52.116;5.286;2023-03-01T03:30:45;8.30;;;7.60;;
13816;SDS011;6979;52.116;5.286;2023-03-01T03:33:15;8.53;;;7.80;;
13816;SDS011;6979;52.116;5.286;2023-03-01T03:35:42;9.00;;;8.20;;
13816;SDS011;6979;52.116;5.286;2023-03-01T03:38:11;8.50;;;7.70;;
13816;SDS011;6979;52.116;5.286;2023-03-01T03:40:43;9.80;;;8.80;;
13816;SDS011;6979;52.116;5.286;2023-03-01T03:43:12;8.37;;;7.63;;
13816;SDS011;6979;52.116;5.286;2023-03-01T03:45:40;9.17;;;8.37;;
13816;SDS011;6979;52.116;5.286;2023-03-01T03:48:09;9.27;;;8.40;;
13816;SDS011;6979;52.116;5.286;2023-03-01T03:50:36;8.83;;;8.13;;
13816;SDS011;6979;52.116;5.286;2023-03-01T03:53:04;9.40;;;8.50;;
13816;SDS011;6979;52.116;5.286;2023-03-01T03:55:33;9.10;;;8.30;;
13816;SDS011;6979;52.116;5.286;2023-03-01T03:58:01;8.87;;;8.07;;
13816;SDS011;6979;52.116;5.286;2023-03-01T04:00:32;8.60;;;7.83;;
13816;SDS011;6979;52.116;5.286;2023-03-01T04:03:03;9.07;;;8.37;;
13816;SDS011;6979;52.116;5.286;2023-03-01T04:05:32;11.93;;;8.83;;
13816;SDS011;6979;52.116;5.286;2023-03-01T04:07:59;9.30;;;8.50;;
13816;SDS011;6979;52.116;5.286;2023-03-01T04:10:33;8.93;;;8.23;;
13816;SDS011;6979;52.116;5.286;2023-03-01T04:13:01;9.93;;;9.03;;
13816;SDS011;6979;52.116;5.286;2023-03-01T04:15:28;10.87;;;9.77;;
13816;SDS011;6979;52.116;5.286;2023-03-01T04:17:57;9.43;;;8.63;;
13816;SDS011;6979;52.116;5.286;2023-03-01T04:20:25;9.13;;;8.33;;
13816;SDS011;6979;52.116;5.286;2023-03-01T04:22:58;9.10;;;8.30;;
13816;SDS011;6979;52.116;5.286;2023-03-01T04:25:33;10.17;;;9.27;;
13816;SDS011;6979;52.116;5.286;2023-03-01T04:28:00;9.27;;;8.47;;
13816;SDS011;6979;52.116;5.286;2023-03-01T04:30:27;9.97;;;9.00;;
13816;SDS011;6979;52.116;5.286;2023-03-01T04:32:54;8.93;;;8.13;;
13816;SDS011;6979;52.116;5.286;2023-03-01T04:35:21;9.40;;;8.27;;
13816;SDS011;6979;52.116;5.286;2023-03-01T04:37:48;9.47;;;8.47;;
13816;SDS011;6979;52.116;5.286;2023-03-01T04:40:19;8.20;;;7.50;;
13816;SDS011;6979;52.116;5.286;2023-03-01T04:42:46;9.57;;;8.57;;
13816;SDS011;6979;52.116;5.286;2023-03-01T04:45:13;10.20;;;9.30;;
13816;SDS011;6979;52.116;5.286;2023-03-01T04:47:40;9.87;;;8.90;;
13816;SDS011;6979;52.116;5.286;2023-03-01T04:50:09;8.97;;;8.17;;
13816;SDS011;6979;52.116;5.286;2023-03-01T04:52:38;9.57;;;8.70;;
13816;SDS011;6979;52.116;5.286;2023-03-01T04:55:06;8.60;;;7.90;;
13816;SDS011;6979;52.116;5.286;2023-03-01T04:57:35;9.53;;;8.63;;
13816;SDS011;6979;52.116;5.286;2023-03-01T05:00:02;10.57;;;9.57;;
13816;SDS011;6979;52.116;5.286;2023-03-01T05:02:45;8.83;;;8.07;;
13816;SDS011;6979;52.116;5.286;2023-03-01T05:05:14;9.20;;;8.50;;
13816;SDS011;6979;52.116;5.286;2023-03-01T05:07:41;9.23;;;8.40;;
13816;SDS011;6979;52.116;5.286;2023-03-01T05:10:08;10.13;;;9.13;;
13816;SDS011;6979;52.116;5.286;2023-03-01T05:12:37;9.30;;;8.50;;
13816;SDS011;6979;52.116;5.286;2023-03-01T05:15:04;9.23;;;8.43;;
13816;SDS011;6979;52.116;5.286;2023-03-01T05:17:32;9.33;;;8.53;;
13816;SDS011;6979;52.116;5.286;2023-03-01T05:20:01;9.83;;;8.83;;
13816;SDS011;6979;52.116;5.286;2023-03-01T05:22:32;9.90;;;9.00;;
13816;SDS011;6979;52.116;5.286;2023-03-01T05:24:59;10.07;;;9.17;;
13816;SDS011;6979;52.116;5.286;2023-03-01T05:27:25;9.63;;;8.83;;
13816;SDS011;6979;52.116;5.286;2023-03-01T05:29:56;9.67;;;8.67;;
13816;SDS011;6979;52.116;5.286;2023-03-01T05:32:23;8.47;;;7.77;;
13816;SDS011;6979;52.116;5.286;2023-03-01T05:34:51;9.23;;;8.43;;
13816;SDS011;6979;52.116;5.286;2023-03-01T05:37:20;10.13;;;9.20;;
13816;SDS011;6979;52.116;5.286;2023-03-01T05:39:47;9.67;;;8.77;;
13816;SDS011;6979;52.116;5.286;2023-03-01T05:42:17;10.00;;;9.00;;
13816;SDS011;6979;52.116;5.286;2023-03-01T05:44:44;8.97;;;8.17;;
13816;SDS011;6979;52.116;5.286;2023-03-01T05:47:13;9.67;;;8.80;;
13816;SDS011;6979;52.116;5.286;2023-03-01T05:49:40;9.30;;;8.33;;
13816;SDS011;6979;52.116;5.286;2023-03-01T05:52:09;9.43;;;8.73;;
13816;SDS011;6979;52.116;5.286;2023-03-01T05:54:36;10.40;;;8.87;;
13816;SDS011;6979;52.116;5.286;2023-03-01T05:57:03;10.30;;;9.40;;
13816;SDS011;6979;52.116;5.286;2023-03-01T05:59:30;10.47;;;9.47;;
13816;SDS011;6979;52.116;5.286;2023-03-01T06:01:57;10.27;;;9.10;;
13816;SDS011;6979;52.116;5.286;2023-03-01T06:04:25;10.93;;;10.00;;
13816;SDS011;6979;52.116;5.286;2023-03-01T06:06:54;11.50;;;10.40;;
13816;SDS011;6979;52.116;5.286;2023-03-01T06:09:21;9.43;;;8.53;;
13816;SDS011;6979;52.116;5.286;2023-03-01T06:11:48;10.03;;;8.87;;
13816;SDS011;6979;52.116;5.286;2023-03-01T06:14:14;10.33;;;9.33;;
13816;SDS011;6979;52.116;5.286;2023-03-01T06:16:42;9.93;;;9.07;;
13816;SDS011;6979;52.116;5.286;2023-03-01T06:19:09;10.17;;;9.27;;
13816;SDS011;6979;52.116;5.286;2023-03-01T06:21:37;9.83;;;8.90;;
13816;SDS011;6979;52.116;5.286;2023-03-01T06:24:04;9.50;;;8.60;;
13816;SDS011;6979;52.116;5.286;2023-03-01T06:26:32;10.03;;;9.07;;
13816;SDS011;6979;52.116;5.286;2023-03-01T06:28:59;9.97;;;9.13;;
13816;SDS011;6979;52.116;5.286;2023-03-01T06:31:26;9.70;;;8.80;;
13816;SDS011;6979;52.116;5.286;2023-03-01T06:33:56;9.37;;;8.47;;
13816;SDS011;6979;52.116;5.286;2023-03-01T06:36:22;9.73;;;8.70;;
13816;SDS011;6979;52.116;5.286;2023-03-01T06:38:51;9.97;;;9.07;;
13816;SDS011;6979;52.116;5.286;2023-03-01T06:41:18;10.37;;;9.57;;
13816;SDS011;6979;52.116;5.286;2023-03-01T06:43:45;10.73;;;9.73;;
13816;SDS011;6979;52.116;5.286;2023-03-01T06:46:12;10.80;;;9.80;;
13816;SDS011;6979;52.116;5.286;2023-03-01T06:48:39;11.17;;;10.07;;
13816;SDS011;6979;52.116;5.286;2023-03-01T06:51:05;10.17;;;9.17;;
13816;SDS011;6979;52.116;5.286;2023-03-01T06:53:32;10.07;;;9.17;;
13816;SDS011;6979;52.116;5.286;2023-03-01T06:56:01;11.27;;;10.07;;
13816;SDS011;6979;52.116;5.286;2023-03-01T06:58:28;11.10;;;9.93;;
13816;SDS011;6979;52.116;5.286;2023-03-01T07:00:55;12.60;;;10.07;;
13816;SDS011;6979;52.116;5.286;2023-03-01T07:03:21;10.70;;;9.63;;
13816;SDS011;6979;52.116;5.286;2023-03-01T07:05:49;12.57;;;9.47;;
13816;SDS011;6979;52.116;5.286;2023-03-01T07:08:17;10.13;;;9.03;;
13816;SDS011;6979;52.116;5.286;2023-03-01T07:10:44;11.50;;;10.30;;
13816;SDS011;6979;52.116;5.286;2023-03-01T07:13:13;11.47;;;10.37;;
13816;SDS011;6979;52.116;5.286;2023-03-01T07:15:40;15.03;;;10.60;;
13816;SDS011;6979;52.116;5.286;2023-03-01T07:18:07;12.03;;;10.50;;
13816;SDS011;6979;52.116;5.286;2023-03-01T07:20:40;15.47;;;10.90;;
13816;SDS011;6979;52.116;5.286;2023-03-01T07:23:09;12.53;;;10.90;;
13816;SDS011;6979;52.116;5.286;2023-03-01T07:25:36;11.67;;;10.27;;
13816;SDS011;6979;52.116;5.286;2023-03-01T07:28:03;16.73;;;9.87;;
13816;SDS011;6979;52.116;5.286;2023-03-01T07:30:32;11.97;;;10.57;;
13816;SDS011;6979;52.116;5.286;2023-03-01T07:32:59;12.67;;;10.47;;
13816;SDS011;6979;52.116;5.286;2023-03-01T07:35:26;13.60;;;10.83;;
13816;SDS011;6979;52.116;5.286;2023-03-01T07:37:54;12.67;;;10.73;;
13816;SDS011;6979;52.116;5.286;2023-03-01T07:40:20;12.70;;;11.50;;
13816;SDS011;6979;52.116;5.286;2023-03-01T07:42:47;14.03;;;11.20;;
13816;SDS011;6979;52.116;5.286;2023-03-01T07:45:14;18.20;;;11.67;;
13816;SDS011;6979;52.116;5.286;2023-03-01T07:47:43;13.47;;;11.27;;
13816;SDS011;6979;52.116;5.286;2023-03-01T07:50:10;16.23;;;11.47;;
13816;SDS011;6979;52.116;5.286;2023-03-01T07:52:40;14.40;;;12.23;;
13816;SDS011;6979;52.116;5.286;2023-03-01T07:55:07;18.83;;;12.13;;
13816;SDS011;6979;52.116;5.286;2023-03-01T07:57:34;14.80;;;12.23;;
13816;SDS011;6979;52.116;5.286;2023-03-01T08:00:02;14.17;;;11.47;;
13816;SDS011;6979;52.116;5.286;2023-03-01T08:02:37;11.97;;;10.67;;
13816;SDS011;6979;52.116;5.286;2023-03-01T08:05:07;13.20;;;11.23;;
13816;SDS011;6979;52.116;5.286;2023-03-01T08:07:34;14.50;;;12.07;;
13816;SDS011;6979;52.116;5.286;2023-03-01T08:10:01;14.10;;;12.03;;
13816;SDS011;6979;52.116;5.286;2023-03-01T08:12:28;14.03;;;11.10;;
13816;SDS011;6979;52.116;5.286;2023-03-01T08:14:55;12.10;;;10.37;;
13816;SDS011;6979;52.116;5.286;2023-03-01T08:17:22;17.07;;;10.57;;
13816;SDS011;6979;52.116;5.286;2023-03-01T08:19:48;12.13;;;10.07;;
13816;SDS011;6979;52.116;5.286;2023-03-01T08:22:17;12.40;;;10.13;;
13816;SDS011;6979;52.116;5.286;2023-03-01T08:24:43;12.47;;;11.17;;
13816;SDS011;6979;52.116;5.286;2023-03-01T08:27:10;11.87;;;10.40;;
13816;SDS011;6979;52.116;5.286;2023-03-01T08:29:38;11.70;;;10.47;;
13816;SDS011;6979;52.116;5.286;2023-03-01T08:32:05;12.90;;;9.50;;
13816;SDS011;6979;52.116;5.286;2023-03-01T08:34:32;11.93;;;10.67;;
13816;SDS011;6979;52.116;5.286;2023-03-01T08:37:00;10.63;;;9.53;;
13816;SDS011;6979;52.116;5.286;2023-03-01T08:39:29;10.80;;;9.70;;
13816;SDS011;6979;52.116;5.286;2023-03-01T08:41:56;10.30;;;9.30;;
13816;SDS011;6979;52.116;5.286;2023-03-01T08:44:23;11.63;;;10.50;;
13816;SDS011;6979;52.116;5.286;2023-03-01T08:46:50;10.10;;;9.13;;
13816;SDS011;6979;52.116;5.286;2023-03-01T08:49:18;8.90;;;8.00;;
13816;SDS011;6979;52.116;5.286;2023-03-01T08:51:46;9.77;;;8.83;;
13816;SDS011;6979;52.116;5.286;2023-03-01T08:54:15;7.87;;;7.10;;
13816;SDS011;6979;52.116;5.286;2023-03-01T08:56:48;8.43;;;7.07;;
13816;SDS011;6979;52.116;5.286;2023-03-01T08:59:15;8.23;;;7.30;;
13816;SDS011;6979;52.116;5.286;2023-03-01T09:01:45;8.63;;;7.30;;
13816;SDS011;6979;52.116;5.286;2023-03-01T09:04:12;7.03;;;6.40;;
13816;SDS011;6979;52.116;5.286;2023-03-01T09:06:41;8.13;;;7.33;;
13816;SDS011;6979;52.116;5.286;2023-03-01T09:09:10;6.67;;;6.07;;
13816;SDS011;6979;52.116;5.286;2023-03-01T09:11:41;6.40;;;5.80;;
13816;SDS011;6979;52.116;5.286;2023-03-01T09:14:10;6.83;;;6.00;;
13816;SDS011;6979;52.116;5.286;2023-03-01T09:16:40;6.50;;;6.00;;
13816;SDS011;6979;52.116;5.286;2023-03-01T09:19:07;5.67;;;5.17;;
13816;SDS011;6979;52.116;5.286;2023-03-01T09:21:35;5.30;;;4.80;;
13816;SDS011;6979;52.116;5.286;2023-03-01T09:24:01;5.60;;;5.13;;
13816;SDS011;6979;52.116;5.286;2023-03-01T09:26:28;5.27;;;4.77;;
13816;SDS011;6979;52.116;5.286;2023-03-01T09:28:55;6.03;;;5.53;;
13816;SDS011;6979;52.116;5.286;2023-03-01T09:31:24;5.30;;;4.80;;
13816;SDS011;6979;52.116;5.286;2023-03-01T09:33:53;5.40;;;4.17;;
13816;SDS011;6979;52.116;5.286;2023-03-01T09:36:21;4.40;;;4.00;;
13816;SDS011;6979;52.116;5.286;2023-03-01T09:38:52;4.60;;;4.20;;
13816;SDS011;6979;52.116;5.286;2023-03-01T09:41:26;4.43;;;4.03;;
13816;SDS011;6979;52.116;5.286;2023-03-01T09:44:05;3.97;;;3.53;;
13816;SDS011;6979;52.116;5.286;2023-03-01T09:46:40;4.43;;;4.13;;
13816;SDS011;6979;52.116;5.286;2023-03-01T09:49:12;3.50;;;3.20;;
13816;SDS011;6979;52.116;5.286;2023-03-01T09:51:43;3.90;;;3.60;;
13816;SDS011;6979;52.116;5.286;2023-03-01T09:54:20;3.17;;;2.87;;
13816;SDS011;6979;52.116;5.286;2023-03-01T09:56:51;4.07;;;3.27;;
13816;SDS011;6979;52.116;5.286;2023-03-01T09:59:26;3.03;;;2.73;;
13816;SDS011;6979;52.116;5.286;2023-03-01T10:02:00;4.10;;;3.80;;
13816;SDS011;6979;52.116;5.286;2023-03-01T10:04:41;3.50;;;3.23;;
13816;SDS011;6979;52.116;5.286;2023-03-01T10:07:17;11.47;;;4.37;;
13816;SDS011;6979;52.116;5.286;2023-03-01T10:09:53;3.67;;;3.47;;
13816;SDS011;6979;52.116;5.286;2023-03-01T10:12:37;3.73;;;3.43;;
13816;SDS011;6979;52.116;5.286;2023-03-01T10:15:09;4.33;;;3.63;;
13816;SDS011;6979;52.116;5.286;2023-03-01T10:17:45;4.00;;;3.70;;
13816;SDS011;6979;52.116;5.286;2023-03-01T10:20:15;4.00;;;3.70;;
13816;SDS011;6979;52.116;5.286;2023-03-01T10:22:45;4.23;;;3.93;;
13816;SDS011;6979;52.116;5.286;2023-03-01T10:25:17;3.70;;;3.40;;
13816;SDS011;6979;52.116;5.286;2023-03-01T10:27:53;3.47;;;3.27;;
13816;SDS011;6979;52.116;5.286;2023-03-01T10:30:29;3.47;;;3.17;;
13816;SDS011;6979;52.116;5.286;2023-03-01T10:33:17;3.07;;;2.83;;
13816;SDS011;6979;52.116;5.286;2023-03-01T10:35:48;3.10;;;2.90;;
13816;SDS011;6979;52.116;5.286;2023-03-01T10:38:15;2.93;;;2.73;;
13816;SDS011;6979;52.116;5.286;2023-03-01T10:40:52;3.63;;;3.03;;
13816;SDS011;6979;52.116;5.286;2023-03-01T10:43:22;2.87;;;2.70;;
13816;SDS011;6979;52.116;5.286;2023-03-01T10:45:49;3.10;;;2.90;;
13816;SDS011;6979;52.116;5.286;2023-03-01T10:48:19;2.67;;;2.47;;
13816;SDS011;6979;52.116;5.286;2023-03-01T10:50:50;2.47;;;2.20;;
13816;SDS011;6979;52.116;5.286;2023-03-01T10:53:32;2.63;;;2.53;;
13816;SDS011;6979;52.116;5.286;2023-03-01T10:56:00;2.47;;;2.27;;
13816;SDS011;6979;52.116;5.286;2023-03-01T10:58:32;3.23;;;2.63;;
13816;SDS011;6979;52.116;5.286;2023-03-01T11:01:03;3.13;;;2.50;;
13816;SDS011;6979;52.116;5.286;2023-03-01T11:03:33;2.90;;;2.70;;
13816;SDS011;6979;52.116;5.286;2023-03-01T11:06:03;2.57;;;2.37;;
13816;SDS011;6979;52.116;5.286;2023-03-01T11:08:35;2.37;;;2.27;;
13816;SDS011;6979;52.116;5.286;2023-03-01T11:11:13;2.40;;;2.30;;
13816;SDS011;6979;52.116;5.286;2023-03-01T11:13:51;2.47;;;2.27;;
13816;SDS011;6979;52.116;5.286;2023-03-01T11:19:18;2.30;;;2.20;;
13816;SDS011;6979;52.116;5.286;2023-03-01T11:21:50;2.87;;;2.70;;
13816;SDS011;6979;52.116;5.286;2023-03-01T11:24:23;2.40;;;2.30;;
13816;SDS011;6979;52.116;5.286;2023-03-01T11:26:55;2.50;;;2.30;;
13816;SDS011;6979;52.116;5.286;2023-03-01T11:29:26;2.37;;;2.27;;
13816;SDS011;6979;52.116;5.286;2023-03-01T11:31:57;2.53;;;2.33;;
13816;SDS011;6979;52.116;5.286;2023-03-01T11:34:31;2.40;;;2.20;;
13816;SDS011;6979;52.116;5.286;2023-03-01T11:37:08;2.60;;;2.40;;
13816;SDS011;6979;52.116;5.286;2023-03-01T11:39:43;2.70;;;2.50;;
13816;SDS011;6979;52.116;5.286;2023-03-01T11:42:18;1.97;;;1.87;;
13816;SDS011;6979;52.116;5.286;2023-03-01T11:44:47;1.90;;;1.80;;
13816;SDS011;6979;52.116;5.286;2023-03-01T11:47:24;2.17;;;1.80;;
13816;SDS011;6979;52.116;5.286;2023-03-01T11:50:10;2.13;;;2.00;;
13816;SDS011;6979;52.116;5.286;2023-03-01T11:52:48;3.53;;;3.23;;
13816;SDS011;6979;52.116;5.286;2023-03-01T11:55:28;2.20;;;2.10;;
13816;SDS011;6979;52.116;5.286;2023-03-01T11:58:14;2.57;;;2.37;;
13816;SDS011;6979;52.116;5.286;2023-03-01T12:01:13;2.33;;;2.23;;
13816;SDS011;6979;52.116;5.286;2023-03-01T12:03:54;1.87;;;1.77;;
13816;SDS011;6979;52.116;5.286;2023-03-01T12:06:37;3.20;;;2.90;;
13816;SDS011;6979;52.116;5.286;2023-03-01T12:09:16;2.57;;;2.37;;
13816;SDS011;6979;52.116;5.286;2023-03-01T12:11:56;2.53;;;2.33;;
13816;SDS011;6979;52.116;5.286;2023-03-01T12:14:51;2.43;;;2.20;;
13816;SDS011;6979;52.116;5.286;2023-03-01T12:17:45;2.27;;;2.17;;
13816;SDS011;6979;52.116;5.286;2023-03-01T12:20:30;2.57;;;2.37;;
13816;SDS011;6979;52.116;5.286;2023-03-01T12:23:14;2.80;;;2.60;;
13816;SDS011;6979;52.116;5.286;2023-03-01T12:26:02;2.13;;;2.03;;
13816;SDS011;6979;52.116;5.286;2023-03-01T12:28:46;3.07;;;2.87;;
13816;SDS011;6979;52.116;5.286;2023-03-01T12:31:33;2.17;;;2.07;;
13816;SDS011;6979;52.116;5.286;2023-03-01T12:34:21;3.03;;;2.83;;
13816;SDS011;6979;52.116;5.286;2023-03-01T12:37:10;2.70;;;2.50;;
13816;SDS011;6979;52.116;5.286;2023-03-01T12:39:50;3.20;;;2.90;;
13816;SDS011;6979;52.116;5.286;2023-03-01T12:42:27;3.30;;;3.10;;
13816;SDS011;6979;52.116;5.286;2023-03-01T12:45:05;3.40;;;3.10;;
13816;SDS011;6979;52.116;5.286;2023-03-01T12:47:52;3.67;;;2.70;;
13816;SDS011;6979;52.116;5.286;2023-03-01T12:50:35;3.23;;;2.93;;
13816;SDS011;6979;52.116;5.286;2023-03-01T12:53:21;3.20;;;2.90;;
13816;SDS011;6979;52.116;5.286;2023-03-01T12:55:51;3.10;;;2.90;;
13816;SDS011;6979;52.116;5.286;2023-03-01T12:58:23;3.67;;;3.37;;
13816;SDS011;6979;52.116;5.286;2023-03-01T13:00:57;10.00;;;3.33;;
13816;SDS011;6979;52.116;5.286;2023-03-01T13:03:35;3.43;;;3.23;;
13816;SDS011;6979;52.116;5.286;2023-03-01T13:06:15;2.70;;;2.50;;
13816;SDS011;6979;52.116;5.286;2023-03-01T13:08:50;3.00;;;2.80;;
13816;SDS011;6979;52.116;5.286;2023-03-01T13:11:30;3.13;;;2.83;;
13816;SDS011;6979;52.116;5.286;2023-03-01T13:17:00;3.50;;;3.23;;
13816;SDS011;6979;52.116;5.286;2023-03-01T13:19:27;3.30;;;3.10;;
13816;SDS011;6979;52.116;5.286;2023-03-01T13:21:57;2.50;;;2.40;;
13816;SDS011;6979;52.116;5.286;2023-03-01T13:24:26;2.90;;;2.70;;
13816;SDS011;6979;52.116;5.286;2023-03-01T13:27:20;2.77;;;2.67;;
13816;SDS011;6979;52.116;5.286;2023-03-01T13:29:54;3.00;;;2.80;;
13816;SDS011;6979;52.116;5.286;2023-03-01T13:32:25;3.37;;;3.17;;
13816;SDS011;6979;52.116;5.286;2023-03-01T13:34:55;3.00;;;2.80;;
13816;SDS011;6979;52.116;5.286;2023-03-01T13:37:31;3.30;;;3.07;;
13816;SDS011;6979;52.116;5.286;2023-03-01T13:40:01;3.33;;;3.13;;
13816;SDS011;6979;52.116;5.286;2023-03-01T13:42:33;2.83;;;2.63;;
13816;SDS011;6979;52.116;5.286;2023-03-01T13:45:03;3.10;;;2.90;;
13816;SDS011;6979;52.116;5.286;2023-03-01T13:47:41;3.10;;;2.90;;
13816;SDS011;6979;52.116;5.286;2023-03-01T13:50:15;2.73;;;2.60;;
13816;SDS011;6979;52.116;5.286;2023-03-01T13:52:46;3.07;;;2.87;;
13816;SDS011;6979;52.116;5.286;2023-03-01T13:55:18;3.60;;;3.30;;
13816;SDS011;6979;52.116;5.286;2023-03-01T13:57:49;3.03;;;2.83;;
13816;SDS011;6979;52.116;5.286;2023-03-01T14:00:27;3.00;;;2.80;;
13816;SDS011;6979;52.116;5.286;2023-03-01T14:03:01;3.20;;;3.00;;
13816;SDS011;6979;52.116;5.286;2023-03-01T14:05:30;3.23;;;2.93;;
13816;SDS011;6979;52.116;5.286;2023-03-01T14:07:57;2.90;;;2.70;;
13816;SDS011;6979;52.116;5.286;2023-03-01T14:10:25;2.63;;;2.53;;
13816;SDS011;6979;52.116;5.286;2023-03-01T14:13:01;3.40;;;3.13;;
13816;SDS011;6979;52.116;5.286;2023-03-01T14:15:47;3.20;;;3.00;;
13816;SDS011;6979;52.116;5.286;2023-03-01T14:18:29;3.47;;;3.27;;
13816;SDS011;6979;52.116;5.286;2023-03-01T14:21:06;3.40;;;3.17;;
13816;SDS011;6979;52.116;5.286;2023-03-01T14:23:34;3.70;;;3.40;;
13816;SDS011;6979;52.116;5.286;2023-03-01T14:26:04;3.80;;;3.50;;
13816;SDS011;6979;52.116;5.286;2023-03-01T14:28:36;3.40;;;3.10;;
13816;SDS011;6979;52.116;5.286;2023-03-01T14:31:25;3.60;;;3.20;;
13816;SDS011;6979;52.116;5.286;2023-03-01T14:33:59;3.80;;;3.50;;
13816;SDS011;6979;52.116;5.286;2023-03-01T14:36:27;4.33;;;3.93;;
13816;SDS011;6979;52.116;5.286;2023-03-01T14:38:55;3.50;;;3.20;;
13816;SDS011;6979;52.116;5.286;2023-03-01T14:41:24;3.40;;;3.20;;
13816;SDS011;6979;52.116;5.286;2023-03-01T14:43:55;3.27;;;2.97;;
13816;SDS011;6979;52.116;5.286;2023-03-01T14:46:26;2.70;;;2.60;;
13816;SDS011;6979;52.116;5.286;2023-03-01T14:49:00;3.23;;;3.03;;
13816;SDS011;6979;52.116;5.286;2023-03-01T14:51:29;3.27;;;3.07;;
13816;SDS011;6979;52.116;5.286;2023-03-01T14:53:56;3.73;;;3.13;;
13816;SDS011;6979;52.116;5.286;2023-03-01T14:56:23;3.37;;;3.10;;
13816;SDS011;6979;52.116;5.286;2023-03-01T14:58:58;3.47;;;3.27;;
13816;SDS011;6979;52.116;5.286;2023-03-01T15:01:27;3.43;;;3.17;;
13816;SDS011;6979;52.116;5.286;2023-03-01T15:03:56;3.80;;;3.50;;
13816;SDS011;6979;52.116;5.286;2023-03-01T15:06:26;3.53;;;3.27;;
13816;SDS011;6979;52.116;5.286;2023-03-01T15:08:53;3.27;;;3.07;;
13816;SDS011;6979;52.116;5.286;2023-03-01T15:11:27;3.60;;;3.30;;
13816;SDS011;6979;52.116;5.286;2023-03-01T15:13:55;3.50;;;3.20;;
13816;SDS011;6979;52.116;5.286;2023-03-01T15:16:25;4.43;;;4.03;;
13816;SDS011;6979;52.116;5.286;2023-03-01T15:18:54;3.70;;;3.50;;
13816;SDS011;6979;52.116;5.286;2023-03-01T15:21:24;3.33;;;3.13;;
13816;SDS011;6979;52.116;5.286;2023-03-01T15:23:54;3.13;;;2.93;;
13816;SDS011;6979;52.116;5.286;2023-03-01T15:26:24;3.70;;;3.40;;
13816;SDS011;6979;52.116;5.286;2023-03-01T15:28:55;3.80;;;3.60;;